Country
Station

 

Weather  for  Yellowstone Lake  -  United States    United States

  
-2 °C (28 °F)
    
 
 

Current METAR for Yellowstone Lake is :

KP60 211056Z AUTO 00000KT M02/M03 A3032 RMK AO1 SLP244 T10221028

 

This is a report for Yellowstone Lake - United States.
 
The report was made one hour and 3 minutes ago, at 10:56 UTC .
The wind was calm.
 
The temperature was -2 °C (28 °F), with a dew-point at -3 °C (27 °F).
The atmospheric pressure was 1027 hPa (30.32 inHg).
The relative humidity was 92.8%.
 

 
 
 
 

Country :   A   B   C   D   E   F   G   H   I   J   K   L   M   N   O   P   Q   R   S   T   U   V   W   Y   Z

 

Site Info  |  Disclaimer  |  Credits  |  Privacy
Contact us  |  Add to favorites
© 2013-2020 METARs - All rights reserved